sensor_id;sensor_type;location;lat;lon;timestamp;P1;durP1;ratioP1;P2;durP2;ratioP2
59424;SDS011;45231;44.826;20.312;2023-03-15T00:01:45;22.50;;;11.57;;
59424;SDS011;45231;44.826;20.312;2023-03-15T00:04:12;17.87;;;10.53;;
59424;SDS011;45231;44.826;20.312;2023-03-15T00:06:38;20.02;;;10.23;;
59424;SDS011;45231;44.826;20.312;2023-03-15T00:09:04;19.45;;;11.57;;
59424;SDS011;45231;44.826;20.312;2023-03-15T00:11:30;20.15;;;11.27;;
59424;SDS011;45231;44.826;20.312;2023-03-15T00:13:57;20.47;;;11.07;;
59424;SDS011;45231;44.826;20.312;2023-03-15T00:16:23;19.23;;;10.40;;
59424;SDS011;45231;44.826;20.312;2023-03-15T00:18:51;21.65;;;10.95;;
59424;SDS011;45231;44.826;20.312;2023-03-15T00:21:17;20.52;;;11.30;;
59424;SDS011;45231;44.826;20.312;2023-03-15T00:23:43;19.23;;;11.77;;
59424;SDS011;45231;44.826;20.312;2023-03-15T00:26:09;22.57;;;11.97;;
59424;SDS011;45231;44.826;20.312;2023-03-15T00:28:36;24.10;;;12.05;;
59424;SDS011;45231;44.826;20.312;2023-03-15T00:31:06;21.73;;;12.13;;
59424;SDS011;45231;44.826;20.312;2023-03-15T00:33:33;21.30;;;12.85;;
59424;SDS011;45231;44.826;20.312;2023-03-15T00:36:04;20.02;;;12.80;;
59424;SDS011;45231;44.826;20.312;2023-03-15T00:38:32;21.38;;;13.35;;
59424;SDS011;45231;44.826;20.312;2023-03-15T00:41:03;23.50;;;13.98;;
59424;SDS011;45231;44.826;20.312;2023-03-15T00:43:29;23.02;;;13.70;;
59424;SDS011;45231;44.826;20.312;2023-03-15T00:45:56;25.25;;;13.88;;
59424;SDS011;45231;44.826;20.312;2023-03-15T00:48:22;23.45;;;13.93;;
59424;SDS011;45231;44.826;20.312;2023-03-15T00:50:48;21.83;;;13.83;;
59424;SDS011;45231;44.826;20.312;2023-03-15T00:53:14;24.85;;;14.32;;
59424;SDS011;45231;44.826;20.312;2023-03-15T00:55:41;25.97;;;14.73;;
59424;SDS011;45231;44.826;20.312;2023-03-15T00:58:07;25.48;;;15.35;;
59424;SDS011;45231;44.826;20.312;2023-03-15T01:00:33;24.05;;;14.43;;
59424;SDS011;45231;44.826;20.312;2023-03-15T01:02:59;25.00;;;14.48;;
59424;SDS011;45231;44.826;20.312;2023-03-15T01:05:25;24.98;;;14.65;;
59424;SDS011;45231;44.826;20.312;2023-03-15T01:07:52;21.47;;;13.90;;
59424;SDS011;45231;44.826;20.312;2023-03-15T01:10:18;23.67;;;14.57;;
59424;SDS011;45231;44.826;20.312;2023-03-15T01:12:44;23.88;;;14.60;;
59424;SDS011;45231;44.826;20.312;2023-03-15T01:15:11;22.55;;;14.52;;
59424;SDS011;45231;44.826;20.312;2023-03-15T01:17:38;22.65;;;14.90;;
59424;SDS011;45231;44.826;20.312;2023-03-15T01:20:04;25.20;;;14.02;;
59424;SDS011;45231;44.826;20.312;2023-03-15T01:22:31;26.40;;;14.27;;
59424;SDS011;45231;44.826;20.312;2023-03-15T01:24:58;21.85;;;13.45;;
59424;SDS011;45231;44.826;20.312;2023-03-15T01:27:24;23.50;;;13.20;;
59424;SDS011;45231;44.826;20.312;2023-03-15T01:29:50;21.70;;;13.13;;
59424;SDS011;45231;44.826;20.312;2023-03-15T01:32:16;20.43;;;12.83;;
59424;SDS011;45231;44.826;20.312;2023-03-15T01:34:42;21.33;;;13.67;;
59424;SDS011;45231;44.826;20.312;2023-03-15T01:37:09;20.83;;;12.95;;
59424;SDS011;45231;44.826;20.312;2023-03-15T01:39:38;20.60;;;13.20;;
59424;SDS011;45231;44.826;20.312;2023-03-15T01:42:04;20.27;;;13.10;;
59424;SDS011;45231;44.826;20.312;2023-03-15T01:47:15;19.45;;;12.43;;
59424;SDS011;45231;44.826;20.312;2023-03-15T01:49:41;21.27;;;11.73;;
59424;SDS011;45231;44.826;20.312;2023-03-15T01:52:12;19.63;;;12.45;;
59424;SDS011;45231;44.826;20.312;2023-03-15T01:54:41;21.75;;;13.55;;
59424;SDS011;45231;44.826;20.312;2023-03-15T01:57:54;20.67;;;12.75;;
59424;SDS011;45231;44.826;20.312;2023-03-15T01:59:55;21.33;;;13.95;;
59424;SDS011;45231;44.826;20.312;2023-03-15T02:02:26;20.50;;;12.93;;
59424;SDS011;45231;44.826;20.312;2023-03-15T02:04:56;21.98;;;13.13;;
59424;SDS011;45231;44.826;20.312;2023-03-15T02:07:24;20.67;;;12.93;;
59424;SDS011;45231;44.826;20.312;2023-03-15T02:10:03;27.55;;;14.52;;
59424;SDS011;45231;44.826;20.312;2023-03-15T02:12:30;21.55;;;13.75;;
59424;SDS011;45231;44.826;20.312;2023-03-15T02:14:57;21.67;;;14.32;;
59424;SDS011;45231;44.826;20.312;2023-03-15T02:17:27;22.90;;;13.73;;
59424;SDS011;45231;44.826;20.312;2023-03-15T02:22:44;24.08;;;14.27;;
59424;SDS011;45231;44.826;20.312;2023-03-15T02:25:18;21.45;;;13.65;;
59424;SDS011;45231;44.826;20.312;2023-03-15T02:27:46;21.83;;;13.98;;
59424;SDS011;45231;44.826;20.312;2023-03-15T02:30:13;21.58;;;13.32;;
59424;SDS011;45231;44.826;20.312;2023-03-15T02:32:39;22.60;;;13.73;;
59424;SDS011;45231;44.826;20.312;2023-03-15T02:35:06;23.58;;;13.25;;
59424;SDS011;45231;44.826;20.312;2023-03-15T02:37:32;21.80;;;13.82;;
59424;SDS011;45231;44.826;20.312;2023-03-15T02:39:58;21.77;;;13.67;;
59424;SDS011;45231;44.826;20.312;2023-03-15T02:42:24;21.93;;;13.27;;
59424;SDS011;45231;44.826;20.312;2023-03-15T02:44:51;20.08;;;12.73;;
59424;SDS011;45231;44.826;20.312;2023-03-15T02:47:22;21.58;;;13.02;;
59424;SDS011;45231;44.826;20.312;2023-03-15T02:49:50;26.85;;;13.45;;
59424;SDS011;45231;44.826;20.312;2023-03-15T02:52:18;19.75;;;12.70;;
59424;SDS011;45231;44.826;20.312;2023-03-15T02:54:44;18.48;;;11.90;;
59424;SDS011;45231;44.826;20.312;2023-03-15T02:57:11;19.67;;;11.80;;
59424;SDS011;45231;44.826;20.312;2023-03-15T02:59:37;27.00;;;14.00;;
59424;SDS011;45231;44.826;20.312;2023-03-15T03:02:04;30.63;;;15.50;;
59424;SDS011;45231;44.826;20.312;2023-03-15T03:04:30;37.60;;;18.17;;
59424;SDS011;45231;44.826;20.312;2023-03-15T03:06:57;31.58;;;15.85;;
59424;SDS011;45231;44.826;20.312;2023-03-15T03:09:23;35.73;;;17.10;;
59424;SDS011;45231;44.826;20.312;2023-03-15T03:11:49;26.60;;;14.48;;
59424;SDS011;45231;44.826;20.312;2023-03-15T03:14:15;22.93;;;14.30;;
59424;SDS011;45231;44.826;20.312;2023-03-15T03:16:41;20.00;;;12.55;;
59424;SDS011;45231;44.826;20.312;2023-03-15T03:19:09;19.92;;;12.32;;
59424;SDS011;45231;44.826;20.312;2023-03-15T03:21:36;17.33;;;11.82;;
59424;SDS011;45231;44.826;20.312;2023-03-15T03:24:02;20.90;;;12.60;;
59424;SDS011;45231;44.826;20.312;2023-03-15T03:26:29;18.27;;;11.65;;
59424;SDS011;45231;44.826;20.312;2023-03-15T03:28:56;18.23;;;10.13;;
59424;SDS011;45231;44.826;20.312;2023-03-15T03:31:23;21.33;;;12.30;;
59424;SDS011;45231;44.826;20.312;2023-03-15T03:36:16;18.67;;;11.05;;
59424;SDS011;45231;44.826;20.312;2023-03-15T03:38:43;20.40;;;11.05;;
59424;SDS011;45231;44.826;20.312;2023-03-15T03:41:10;16.98;;;10.50;;
59424;SDS011;45231;44.826;20.312;2023-03-15T03:43:37;16.58;;;10.10;;
59424;SDS011;45231;44.826;20.312;2023-03-15T03:46:03;17.77;;;10.38;;
59424;SDS011;45231;44.826;20.312;2023-03-15T03:48:29;18.87;;;10.30;;
59424;SDS011;45231;44.826;20.312;2023-03-15T03:50:56;17.00;;;9.77;;
59424;SDS011;45231;44.826;20.312;2023-03-15T03:55:49;17.60;;;10.60;;
59424;SDS011;45231;44.826;20.312;2023-03-15T03:58:15;17.10;;;10.32;;
59424;SDS011;45231;44.826;20.312;2023-03-15T04:00:41;17.80;;;9.70;;
59424;SDS011;45231;44.826;20.312;2023-03-15T04:03:08;18.80;;;10.20;;
59424;SDS011;45231;44.826;20.312;2023-03-15T04:05:34;17.13;;;10.40;;
59424;SDS011;45231;44.826;20.312;2023-03-15T04:08:00;21.52;;;10.88;;
59424;SDS011;45231;44.826;20.312;2023-03-15T04:10:27;15.15;;;9.38;;
59424;SDS011;45231;44.826;20.312;2023-03-15T04:12:53;17.50;;;9.40;;
59424;SDS011;45231;44.826;20.312;2023-03-15T04:15:19;18.70;;;9.85;;
59424;SDS011;45231;44.826;20.312;2023-03-15T04:17:49;20.05;;;11.13;;
59424;SDS011;45231;44.826;20.312;2023-03-15T04:20:20;18.08;;;10.73;;
59424;SDS011;45231;44.826;20.312;2023-03-15T04:22:47;18.13;;;10.50;;
59424;SDS011;45231;44.826;20.312;2023-03-15T04:25:14;20.17;;;13.18;;
59424;SDS011;45231;44.826;20.312;2023-03-15T04:30:07;18.90;;;10.30;;
59424;SDS011;45231;44.826;20.312;2023-03-15T04:32:33;19.35;;;10.75;;
59424;SDS011;45231;44.826;20.312;2023-03-15T04:34:59;17.17;;;10.00;;
59424;SDS011;45231;44.826;20.312;2023-03-15T04:37:29;15.65;;;9.63;;
59424;SDS011;45231;44.826;20.312;2023-03-15T04:39:56;14.85;;;9.43;;
59424;SDS011;45231;44.826;20.312;2023-03-15T04:42:25;16.35;;;9.05;;
59424;SDS011;45231;44.826;20.312;2023-03-15T04:44:51;16.13;;;9.70;;
59424;SDS011;45231;44.826;20.312;2023-03-15T04:47:30;14.77;;;9.77;;
59424;SDS011;45231;44.826;20.312;2023-03-15T04:49:56;14.43;;;10.23;;
59424;SDS011;45231;44.826;20.312;2023-03-15T04:52:22;17.20;;;10.27;;
59424;SDS011;45231;44.826;20.312;2023-03-15T04:54:48;14.67;;;8.77;;
59424;SDS011;45231;44.826;20.312;2023-03-15T04:57:14;17.30;;;9.90;;
59424;SDS011;45231;44.826;20.312;2023-03-15T04:59:40;14.60;;;9.27;;
59424;SDS011;45231;44.826;20.312;2023-03-15T05:02:07;14.60;;;9.50;;
59424;SDS011;45231;44.826;20.312;2023-03-15T05:04:33;15.52;;;10.20;;
59424;SDS011;45231;44.826;20.312;2023-03-15T05:06:59;16.70;;;9.43;;
59424;SDS011;45231;44.826;20.312;2023-03-15T05:09:25;17.45;;;10.00;;
59424;SDS011;45231;44.826;20.312;2023-03-15T05:11:51;15.82;;;9.18;;
59424;SDS011;45231;44.826;20.312;2023-03-15T05:14:18;15.10;;;10.03;;
59424;SDS011;45231;44.826;20.312;2023-03-15T05:16:44;15.63;;;9.73;;
59424;SDS011;45231;44.826;20.312;2023-03-15T05:19:13;16.73;;;9.93;;
59424;SDS011;45231;44.826;20.312;2023-03-15T05:21:39;15.27;;;9.50;;
59424;SDS011;45231;44.826;20.312;2023-03-15T05:24:05;15.33;;;9.23;;
59424;SDS011;45231;44.826;20.312;2023-03-15T05:26:31;18.30;;;9.52;;
59424;SDS011;45231;44.826;20.312;2023-03-15T05:28:58;16.35;;;10.35;;
59424;SDS011;45231;44.826;20.312;2023-03-15T05:31:25;15.27;;;10.10;;
59424;SDS011;45231;44.826;20.312;2023-03-15T05:33:51;18.57;;;9.77;;
59424;SDS011;45231;44.826;20.312;2023-03-15T05:36:18;17.67;;;10.13;;
59424;SDS011;45231;44.826;20.312;2023-03-15T05:38:45;13.57;;;8.93;;
59424;SDS011;45231;44.826;20.312;2023-03-15T05:41:11;14.73;;;9.03;;
59424;SDS011;45231;44.826;20.312;2023-03-15T05:43:41;13.63;;;8.63;;
59424;SDS011;45231;44.826;20.312;2023-03-15T05:46:07;14.30;;;8.37;;
59424;SDS011;45231;44.826;20.312;2023-03-15T05:48:34;16.20;;;8.67;;
59424;SDS011;45231;44.826;20.312;2023-03-15T05:51:00;13.70;;;7.97;;
59424;SDS011;45231;44.826;20.312;2023-03-15T05:53:26;15.37;;;8.13;;
59424;SDS011;45231;44.826;20.312;2023-03-15T05:55:52;16.27;;;7.68;;
59424;SDS011;45231;44.826;20.312;2023-03-15T05:58:18;17.23;;;8.30;;
59424;SDS011;45231;44.826;20.312;2023-03-15T06:00:44;12.60;;;7.40;;
59424;SDS011;45231;44.826;20.312;2023-03-15T06:03:10;13.38;;;8.15;;
59424;SDS011;45231;44.826;20.312;2023-03-15T06:05:36;13.53;;;7.50;;
59424;SDS011;45231;44.826;20.312;2023-03-15T06:08:02;14.20;;;7.47;;
59424;SDS011;45231;44.826;20.312;2023-03-15T06:10:28;15.00;;;7.93;;
59424;SDS011;45231;44.826;20.312;2023-03-15T06:12:54;16.80;;;8.25;;
59424;SDS011;45231;44.826;20.312;2023-03-15T06:15:20;13.93;;;7.00;;
59424;SDS011;45231;44.826;20.312;2023-03-15T06:17:47;16.50;;;7.45;;
59424;SDS011;45231;44.826;20.312;2023-03-15T06:20:13;14.32;;;7.43;;
59424;SDS011;45231;44.826;20.312;2023-03-15T06:22:39;14.18;;;7.95;;
59424;SDS011;45231;44.826;20.312;2023-03-15T06:25:06;14.53;;;6.70;;
59424;SDS011;45231;44.826;20.312;2023-03-15T06:27:32;14.38;;;7.47;;
59424;SDS011;45231;44.826;20.312;2023-03-15T06:29:58;17.88;;;7.57;;
59424;SDS011;45231;44.826;20.312;2023-03-15T06:32:24;22.47;;;8.30;;
59424;SDS011;45231;44.826;20.312;2023-03-15T06:34:50;13.40;;;7.40;;
59424;SDS011;45231;44.826;20.312;2023-03-15T06:37:16;16.67;;;8.32;;
59424;SDS011;45231;44.826;20.312;2023-03-15T06:39:43;14.70;;;6.90;;
59424;SDS011;45231;44.826;20.312;2023-03-15T06:42:09;13.20;;;7.83;;
59424;SDS011;45231;44.826;20.312;2023-03-15T06:44:38;13.07;;;7.95;;
59424;SDS011;45231;44.826;20.312;2023-03-15T06:49:30;17.77;;;8.77;;
59424;SDS011;45231;44.826;20.312;2023-03-15T06:51:56;18.85;;;8.65;;
59424;SDS011;45231;44.826;20.312;2023-03-15T06:54:22;16.30;;;9.90;;
59424;SDS011;45231;44.826;20.312;2023-03-15T06:56:49;18.13;;;9.82;;
59424;SDS011;45231;44.826;20.312;2023-03-15T06:59:15;15.82;;;9.23;;
59424;SDS011;45231;44.826;20.312;2023-03-15T07:01:42;20.02;;;10.30;;
59424;SDS011;45231;44.826;20.312;2023-03-15T07:04:08;17.20;;;11.10;;
59424;SDS011;45231;44.826;20.312;2023-03-15T07:06:34;16.30;;;9.27;;
59424;SDS011;45231;44.826;20.312;2023-03-15T07:09:00;15.02;;;9.05;;
59424;SDS011;45231;44.826;20.312;2023-03-15T07:11:26;14.73;;;9.50;;
59424;SDS011;45231;44.826;20.312;2023-03-15T07:13:53;16.08;;;9.13;;
59424;SDS011;45231;44.826;20.312;2023-03-15T07:16:19;15.73;;;9.73;;
59424;SDS011;45231;44.826;20.312;2023-03-15T07:18:45;16.17;;;10.20;;
59424;SDS011;45231;44.826;20.312;2023-03-15T07:21:11;17.63;;;10.17;;
59424;SDS011;45231;44.826;20.312;2023-03-15T07:23:37;16.23;;;9.47;;
59424;SDS011;45231;44.826;20.312;2023-03-15T07:26:03;17.85;;;9.57;;
59424;SDS011;45231;44.826;20.312;2023-03-15T07:28:29;14.95;;;9.60;;
59424;SDS011;45231;44.826;20.312;2023-03-15T07:30:56;15.13;;;9.57;;
59424;SDS011;45231;44.826;20.312;2023-03-15T07:33:23;12.25;;;8.52;;
59424;SDS011;45231;44.826;20.312;2023-03-15T07:35:50;19.83;;;9.73;;
59424;SDS011;45231;44.826;20.312;2023-03-15T07:38:17;12.98;;;8.63;;
59424;SDS011;45231;44.826;20.312;2023-03-15T07:40:43;14.68;;;9.23;;
59424;SDS011;45231;44.826;20.312;2023-03-15T07:43:09;19.15;;;9.75;;
59424;SDS011;45231;44.826;20.312;2023-03-15T07:45:36;15.73;;;9.43;;
59424;SDS011;45231;44.826;20.312;2023-03-15T07:48:02;13.37;;;8.90;;
59424;SDS011;45231;44.826;20.312;2023-03-15T07:50:28;16.93;;;9.40;;
59424;SDS011;45231;44.826;20.312;2023-03-15T07:52:54;14.15;;;9.13;;
59424;SDS011;45231;44.826;20.312;2023-03-15T07:55:20;16.38;;;9.18;;
59424;SDS011;45231;44.826;20.312;2023-03-15T07:57:46;17.57;;;9.83;;
59424;SDS011;45231;44.826;20.312;2023-03-15T08:00:12;15.57;;;9.27;;
59424;SDS011;45231;44.826;20.312;2023-03-15T08:02:39;12.50;;;8.85;;
59424;SDS011;45231;44.826;20.312;2023-03-15T08:05:05;13.27;;;8.52;;
59424;SDS011;45231;44.826;20.312;2023-03-15T08:07:31;16.33;;;8.30;;
59424;SDS011;45231;44.826;20.312;2023-03-15T08:09:57;13.52;;;8.55;;
59424;SDS011;45231;44.826;20.312;2023-03-15T08:12:24;13.57;;;7.87;;
59424;SDS011;45231;44.826;20.312;2023-03-15T08:14:50;12.80;;;8.02;;
59424;SDS011;45231;44.826;20.312;2023-03-15T08:17:17;28.15;;;8.32;;
59424;SDS011;45231;44.826;20.312;2023-03-15T08:19:43;87.20;;;9.48;;
59424;SDS011;45231;44.826;20.312;2023-03-15T08:22:09;12.90;;;7.17;;
59424;SDS011;45231;44.826;20.312;2023-03-15T08:24:36;12.18;;;5.95;;
59424;SDS011;45231;44.826;20.312;2023-03-15T08:27:02;14.17;;;5.60;;
59424;SDS011;45231;44.826;20.312;2023-03-15T08:29:29;10.75;;;4.72;;
59424;SDS011;45231;44.826;20.312;2023-03-15T08:31:55;10.00;;;5.03;;
59424;SDS011;45231;44.826;20.312;2023-03-15T08:34:21;9.27;;;5.13;;
59424;SDS011;45231;44.826;20.312;2023-03-15T08:36:47;11.70;;;5.95;;
59424;SDS011;45231;44.826;20.312;2023-03-15T08:39:13;9.07;;;5.90;;
59424;SDS011;45231;44.826;20.312;2023-03-15T08:41:39;9.95;;;5.00;;
59424;SDS011;45231;44.826;20.312;2023-03-15T08:44:07;9.25;;;5.57;;
59424;SDS011;45231;44.826;20.312;2023-03-15T08:46:33;16.53;;;5.87;;
59424;SDS011;45231;44.826;20.312;2023-03-15T08:48:59;10.90;;;6.00;;
59424;SDS011;45231;44.826;20.312;2023-03-15T08:51:25;12.93;;;5.03;;
59424;SDS011;45231;44.826;20.312;2023-03-15T08:53:52;8.35;;;5.15;;
59424;SDS011;45231;44.826;20.312;2023-03-15T08:56:18;14.65;;;7.53;;
59424;SDS011;45231;44.826;20.312;2023-03-15T08:58:45;12.93;;;6.90;;
59424;SDS011;45231;44.826;20.312;2023-03-15T09:01:11;9.70;;;4.40;;
59424;SDS011;45231;44.826;20.312;2023-03-15T09:03:37;9.25;;;5.13;;
59424;SDS011;45231;44.826;20.312;2023-03-15T09:06:03;11.13;;;5.47;;
59424;SDS011;45231;44.826;20.312;2023-03-15T09:08:30;12.35;;;6.07;;
59424;SDS011;45231;44.826;20.312;2023-03-15T09:10:57;8.93;;;4.90;;
59424;SDS011;45231;44.826;20.312;2023-03-15T09:13:24;7.25;;;4.53;;
59424;SDS011;45231;44.826;20.312;2023-03-15T09:15:50;15.18;;;4.18;;
59424;SDS011;45231;44.826;20.312;2023-03-15T09:18:17;13.05;;;4.85;;
59424;SDS011;45231;44.826;20.312;2023-03-15T09:20:43;11.50;;;4.40;;
59424;SDS011;45231;44.826;20.312;2023-03-15T09:23:10;15.77;;;4.82;;
59424;SDS011;45231;44.826;20.312;2023-03-15T09:25:36;11.40;;;4.78;;
59424;SDS011;45231;44.826;20.312;2023-03-15T09:28:03;25.77;;;5.15;;
59424;SDS011;45231;44.826;20.312;2023-03-15T09:32:55;10.63;;;3.95;;
59424;SDS011;45231;44.826;20.312;2023-03-15T09:35:21;7.57;;;4.27;;
59424;SDS011;45231;44.826;20.312;2023-03-15T09:37:48;8.30;;;3.92;;
59424;SDS011;45231;44.826;20.312;2023-03-15T09:47:52;18.13;;;10.65;;
59424;SDS011;45231;44.826;20.312;2023-03-15T09:50:25;18.27;;;4.95;;
59424;SDS011;45231;44.826;20.312;2023-03-15T09:53:11;6.75;;;4.55;;
59424;SDS011;45231;44.826;20.312;2023-03-15T09:55:38;10.17;;;4.60;;
59424;SDS011;45231;44.826;20.312;2023-03-15T09:58:10;10.20;;;4.85;;
59424;SDS011;45231;44.826;20.312;2023-03-15T10:00:43;12.00;;;4.43;;
59424;SDS011;45231;44.826;20.312;2023-03-15T10:05:54;22.90;;;5.50;;
59424;SDS011;45231;44.826;20.312;2023-03-15T10:08:21;22.13;;;5.63;;
59424;SDS011;45231;44.826;20.312;2023-03-15T10:10:52;6.77;;;5.00;;
59424;SDS011;45231;44.826;20.312;2023-03-15T10:13:32;8.52;;;5.30;;
59424;SDS011;45231;44.826;20.312;2023-03-15T10:16:10;9.65;;;5.55;;
59424;SDS011;45231;44.826;20.312;2023-03-15T10:21:15;7.63;;;5.25;;
59424;SDS011;45231;44.826;20.312;2023-03-15T10:23:49;11.23;;;5.90;;
59424;SDS011;45231;44.826;20.312;2023-03-15T10:26:18;9.00;;;5.18;;
59424;SDS011;45231;44.826;20.312;2023-03-15T10:28:44;8.90;;;5.65;;
59424;SDS011;45231;44.826;20.312;2023-03-15T10:31:15;7.47;;;4.82;;
59424;SDS011;45231;44.826;20.312;2023-03-15T10:33:41;10.20;;;6.28;;
59424;SDS011;45231;44.826;20.312;2023-03-15T10:38:37;8.40;;;5.93;;
59424;SDS011;45231;44.826;20.312;2023-03-15T10:41:04;10.63;;;6.47;;
59424;SDS011;45231;44.826;20.312;2023-03-15T10:43:31;10.27;;;7.55;;
59424;SDS011;45231;44.826;20.312;2023-03-15T10:46:12;8.73;;;6.53;;
59424;SDS011;45231;44.826;20.312;2023-03-15T10:48:39;8.85;;;5.63;;
59424;SDS011;45231;44.826;20.312;2023-03-15T10:51:21;9.18;;;6.32;;
59424;SDS011;45231;44.826;20.312;2023-03-15T10:53:55;8.77;;;6.38;;
59424;SDS011;45231;44.826;20.312;2023-03-15T10:56:24;9.38;;;6.85;;
59424;SDS011;45231;44.826;20.312;2023-03-15T10:58:52;10.02;;;6.32;;
59424;SDS011;45231;44.826;20.312;2023-03-15T11:01:23;11.02;;;6.93;;
59424;SDS011;45231;44.826;20.312;2023-03-15T11:03:59;9.27;;;6.82;;
59424;SDS011;45231;44.826;20.312;2023-03-15T11:06:26;12.55;;;7.60;;
59424;SDS011;45231;44.826;20.312;2023-03-15T11:08:53;14.27;;;7.30;;
59424;SDS011;45231;44.826;20.312;2023-03-15T11:11:23;12.93;;;8.23;;
59424;SDS011;45231;44.826;20.312;2023-03-15T11:13:58;18.80;;;8.00;;
59424;SDS011;45231;44.826;20.312;2023-03-15T11:16:25;11.32;;;8.15;;
59424;SDS011;45231;44.826;20.312;2023-03-15T11:18:56;10.13;;;7.73;;
59424;SDS011;45231;44.826;20.312;2023-03-15T11:21:25;12.63;;;8.30;;
59424;SDS011;45231;44.826;20.312;2023-03-15T11:23:52;11.45;;;8.70;;
59424;SDS011;45231;44.826;20.312;2023-03-15T11:26:20;16.60;;;7.45;;
59424;SDS011;45231;44.826;20.312;2023-03-15T11:28:48;10.48;;;7.22;;
59424;SDS011;45231;44.826;20.312;2023-03-15T11:31:15;11.55;;;7.35;;
59424;SDS011;45231;44.826;20.312;2023-03-15T11:33:52;13.52;;;6.85;;
59424;SDS011;45231;44.826;20.312;2023-03-15T11:36:21;11.88;;;7.32;;
59424;SDS011;45231;44.826;20.312;2023-03-15T11:38:48;11.98;;;8.07;;
59424;SDS011;45231;44.826;20.312;2023-03-15T11:46:13;11.68;;;8.07;;
59424;SDS011;45231;44.826;20.312;2023-03-15T11:48:41;12.23;;;7.53;;
59424;SDS011;45231;44.826;20.312;2023-03-15T11:51:09;15.32;;;8.27;;
59424;SDS011;45231;44.826;20.312;2023-03-15T11:53:42;13.65;;;8.85;;
59424;SDS011;45231;44.826;20.312;2023-03-15T11:59:11;14.00;;;9.68;;
59424;SDS011;45231;44.826;20.312;2023-03-15T12:01:44;13.85;;;9.45;;
59424;SDS011;45231;44.826;20.312;2023-03-15T12:07:00;14.43;;;9.73;;
59424;SDS011;45231;44.826;20.312;2023-03-15T12:12:01;14.32;;;8.85;;
59424;SDS011;45231;44.826;20.312;2023-03-15T12:19:39;13.75;;;8.63;;
59424;SDS011;45231;44.826;20.312;2023-03-15T12:22:10;12.52;;;8.50;;
59424;SDS011;45231;44.826;20.312;2023-03-15T12:24:38;12.70;;;8.85;;
59424;SDS011;45231;44.826;20.312;2023-03-15T12:27:05;14.60;;;9.48;;
59424;SDS011;45231;44.826;20.312;2023-03-15T12:29:39;13.40;;;9.32;;
59424;SDS011;45231;44.826;20.312;2023-03-15T12:32:10;17.40;;;10.35;;
59424;SDS011;45231;44.826;20.312;2023-03-15T12:52:54;17.08;;;10.90;;
59424;SDS011;45231;44.826;20.312;2023-03-15T12:55:23;18.85;;;11.10;;
59424;SDS011;45231;44.826;20.312;2023-03-15T12:57:52;18.27;;;10.88;;
59424;SDS011;45231;44.826;20.312;2023-03-15T13:00:23;14.05;;;9.80;;
59424;SDS011;45231;44.826;20.312;2023-03-15T13:13:24;15.20;;;9.37;;
59424;SDS011;45231;44.826;20.312;2023-03-15T13:18:22;18.17;;;9.65;;
59424;SDS011;45231;44.826;20.312;2023-03-15T13:23:20;16.88;;;8.65;;
59424;SDS011;45231;44.826;20.312;2023-03-15T13:28:28;14.15;;;9.25;;
59424;SDS011;45231;44.826;20.312;2023-03-15T13:31:11;14.55;;;8.98;;
59424;SDS011;45231;44.826;20.312;2023-03-15T13:33:39;14.40;;;8.38;;
59424;SDS011;45231;44.826;20.312;2023-03-15T13:38:40;12.65;;;8.02;;
59424;SDS011;45231;44.826;20.312;2023-03-15T13:41:23;14.32;;;8.02;;
59424;SDS011;45231;44.826;20.312;2023-03-15T13:43:51;12.70;;;7.28;;
59424;SDS011;45231;44.826;20.312;2023-03-15T13:46:18;11.73;;;6.30;;
59424;SDS011;45231;44.826;20.312;2023-03-15T13:48:47;11.85;;;6.47;;
59424;SDS011;45231;44.826;20.312;2023-03-15T13:51:32;13.48;;;6.50;;
59424;SDS011;45231;44.826;20.312;2023-03-15T13:54:02;11.48;;;6.43;;
59424;SDS011;45231;44.826;20.312;2023-03-15T13:56:33;12.88;;;7.25;;
59424;SDS011;45231;44.826;20.312;2023-03-15T13:59:00;12.43;;;7.28;;
59424;SDS011;45231;44.826;20.312;2023-03-15T14:01:28;12.35;;;6.80;;
59424;SDS011;45231;44.826;20.312;2023-03-15T14:04:01;14.93;;;7.55;;
59424;SDS011;45231;44.826;20.312;2023-03-15T14:06:29;14.10;;;8.23;;
59424;SDS011;45231;44.826;20.312;2023-03-15T14:09:07;15.53;;;8.00;;
59424;SDS011;45231;44.826;20.312;2023-03-15T14:11:37;12.70;;;7.28;;
59424;SDS011;45231;44.826;20.312;2023-03-15T14:16:41;13.70;;;6.80;;
59424;SDS011;45231;44.826;20.312;2023-03-15T14:21:43;13.13;;;7.07;;
59424;SDS011;45231;44.826;20.312;2023-03-15T14:24:12;12.48;;;7.00;;
59424;SDS011;45231;44.826;20.312;2023-03-15T14:26:39;15.02;;;7.28;;
59424;SDS011;45231;44.826;20.312;2023-03-15T14:29:06;15.85;;;7.85;;
59424;SDS011;45231;44.826;20.312;2023-03-15T14:31:45;17.55;;;7.72;;
59424;SDS011;45231;44.826;20.312;2023-03-15T14:37:00;14.53;;;6.73;;
59424;SDS011;45231;44.826;20.312;2023-03-15T14:42:00;13.18;;;7.07;;
59424;SDS011;45231;44.826;20.312;2023-03-15T14:44:26;11.52;;;6.47;;
59424;SDS011;45231;44.826;20.312;2023-03-15T14:46:52;13.93;;;7.18;;
59424;SDS011;45231;44.826;20.312;2023-03-15T14:49:23;11.65;;;5.97;;
59424;SDS011;45231;44.826;20.312;2023-03-15T14:51:55;11.82;;;6.53;;
59424;SDS011;45231;44.826;20.312;2023-03-15T14:54:23;11.90;;;6.22;;
59424;SDS011;45231;44.826;20.312;2023-03-15T14:56:49;6.43;;;3.43;;
59424;SDS011;45231;44.826;20.312;2023-03-15T14:59:16;5.97;;;2.90;;
59424;SDS011;45231;44.826;20.312;2023-03-15T15:01:43;6.80;;;3.70;;
59424;SDS011;45231;44.826;20.312;2023-03-15T15:04:11;6.65;;;3.28;;
59424;SDS011;45231;44.826;20.312;2023-03-15T15:06:37;7.85;;;4.60;;
59424;SDS011;45231;44.826;20.312;2023-03-15T15:09:03;10.77;;;5.07;;
59424;SDS011;45231;44.826;20.312;2023-03-15T15:13:57;6.85;;;3.72;;
59424;SDS011;45231;44.826;20.312;2023-03-15T15:16:23;9.25;;;3.80;;
59424;SDS011;45231;44.826;20.312;2023-03-15T15:18:49;6.83;;;3.33;;
59424;SDS011;45231;44.826;20.312;2023-03-15T15:23:42;9.23;;;4.28;;
59424;SDS011;45231;44.826;20.312;2023-03-15T15:26:18;7.57;;;4.25;;
59424;SDS011;45231;44.826;20.312;2023-03-15T15:28:46;6.50;;;3.60;;
59424;SDS011;45231;44.826;20.312;2023-03-15T15:31:14;7.63;;;4.18;;
59424;SDS011;45231;44.826;20.312;2023-03-15T15:33:40;9.00;;;4.10;;
59424;SDS011;45231;44.826;20.312;2023-03-15T15:36:14;8.52;;;3.30;;
59424;SDS011;45231;44.826;20.312;2023-03-15T15:38:41;7.63;;;3.13;;
59424;SDS011;45231;44.826;20.312;2023-03-15T15:41:12;5.70;;;2.97;;
59424;SDS011;45231;44.826;20.312;2023-03-15T15:43:38;7.63;;;3.80;;
59424;SDS011;45231;44.826;20.312;2023-03-15T15:46:04;6.93;;;2.93;;
59424;SDS011;45231;44.826;20.312;2023-03-15T15:48:30;5.85;;;2.97;;
59424;SDS011;45231;44.826;20.312;2023-03-15T15:50:56;5.47;;;2.80;;
59424;SDS011;45231;44.826;20.312;2023-03-15T15:53:22;7.40;;;3.30;;
59424;SDS011;45231;44.826;20.312;2023-03-15T15:55:49;6.20;;;2.95;;
59424;SDS011;45231;44.826;20.312;2023-03-15T15:58:15;7.40;;;3.50;;
59424;SDS011;45231;44.826;20.312;2023-03-15T16:00:41;6.00;;;2.80;;
59424;SDS011;45231;44.826;20.312;2023-03-15T16:03:13;5.45;;;2.97;;
59424;SDS011;45231;44.826;20.312;2023-03-15T16:05:39;7.40;;;3.40;;
59424;SDS011;45231;44.826;20.312;2023-03-15T16:08:06;5.38;;;2.75;;